LiveATC.Net - Listen to live air traffic control over the Internet!


ICAO: EPMO  IATA: WMI   Airport: Warsaw-Modlin Mazovia Airport
City: Warsaw
Country: Poland   Continent: Europe
EPMO METAR Weather: EPMO 202200Z 24018KT 6000 -RA OVC007 05/04 Q1001
EPMO Flight Activity (FlightAware)
EPMO Tower
Feed Status: DOWN
Last heard on: 2017-02-15 00:00:03 (5 days 22 hours 48 minutes ago)
FacilityFrequency
Modlin Tower123.925

www.salt.aero

NOTICE

Unauthorized use prohibited. See LiveATC.net Terms of Service


Find LiveATC Audio Streams


Airport/ARTCC Code

Frequency Search
(e.g., 124.400, 128.75)
Site-wide search
 


Browse LiveATC Feeds
LiveATC Coverage Map
Top 50 LiveATC Feeds
Bad Weather Areas

LiveATC FAQ
Offer a LiveATC Feed
Contact LiveATC.net
Press Inquiries

LiveATC on iPhone
LiveATC on Android

Windows Phone
Windows 8/10

LiveATC Mobile
(Mobile browser)

ATC Audio Archives
Interesting Recordings

LiveATC Forums


Home Page
About LiveATC.net
Make a Donation
LiveATC Store

Terms of Use
Privacy Policy

Canadian Air Freqs

AIRMETs/SIGMETs

FAA Airport Status
Nat'l Airspace Status
Arrival Demand Charts


Server Software By:
Icecast.org
Liquidsoap